Time;durP1;ratioP1;P1;durP2;ratioP2;P2;SDS_P1;SDS_P2;PMS_P1;PMS_P2;Temp;Humidity;BMP_temperature;BMP_pressure;BME280_temperature;BME280_humidity;BME280_pressure;Samples;Min_cycle;Max_cycle;Signal;HPM_P1;HPM_P2
2022/06/27 00:00:14;;;;;;;3.45;3.10;;;17.80;81.60;;;;;;5049101;28;20544;-76
2022/06/27 00:02:40;;;;;;;6.40;3.20;;;17.90;83.50;;;;;;5013243;28;20038;-76
2022/06/27 00:05:06;;;;;;;3.60;3.10;;;17.80;81.70;;;;;;5028342;28;20084;-76
2022/06/27 00:07:31;;;;;;;4.10;3.50;;;17.70;80.40;;;;;;5030863;28;20033;-76
2022/06/27 00:09:57;;;;;;;7.75;4.05;;;17.70;80.20;;;;;;5025326;28;20034;-77
2022/06/27 00:12:22;;;;;;;4.78;4.15;;;17.80;80.00;;;;;;5027947;28;20125;-76
2022/06/27 00:14:49;;;;;;;8.38;4.18;;;17.70;82.80;;;;;;5012326;28;20383;-77
2022/06/27 00:17:14;;;;;;;5.15;3.95;;;17.70;83.40;;;;;;5024892;28;20062;-77
2022/06/27 00:19:40;;;;;;;7.28;3.60;;;17.80;82.20;;;;;;5043416;28;20053;-76
2022/06/27 00:22:05;;;;;;;5.30;3.80;;;17.80;81.40;;;;;;5043403;28;20040;-76
2022/06/27 00:24:32;;;;;;;5.00;3.97;;;17.70;81.40;;;;;;5036526;28;20079;-77
2022/06/27 00:26:57;;;;;;;4.72;4.22;;;17.70;81.80;;;;;;5012236;28;20159;-76
2022/06/27 00:29:23;;;;;;;6.82;4.28;;;17.70;81.60;;;;;;5012139;28;20125;-77
2022/06/27 00:31:48;;;;;;;4.65;4.13;;;17.70;84.20;;;;;;5017807;28;20029;-77
2022/06/27 00:34:14;;;;;;;4.60;2.95;;;17.70;90.80;;;;;;5048761;28;20314;-78
2022/06/27 00:36:40;;;;;;;5.75;4.18;;;17.60;88.00;;;;;;5022329;28;20034;-76
2022/06/27 00:39:05;;;;;;;4.40;4.00;;;17.60;86.80;;;;;;5030898;28;20036;-77
2022/06/27 00:41:31;;;;;;;7.25;4.47;;;17.70;85.90;;;;;;5015786;28;20029;-77
2022/06/27 00:43:56;;;;;;;5.35;4.20;;;17.60;85.10;;;;;;5016318;28;20030;-76
2022/06/27 00:46:22;;;;;;;5.22;4.38;;;17.50;85.80;;;;;;5033375;28;20037;-77
2022/06/27 00:48:47;;;;;;;6.47;4.50;;;17.50;89.20;;;;;;5041911;28;20478;-77
2022/06/27 00:51:13;;;;;;;9.82;4.35;;;17.40;87.70;;;;;;5060805;28;20670;-76
2022/06/27 00:53:39;;;;;;;5.20;4.68;;;17.40;85.90;;;;;;5015517;28;20029;-77
2022/06/27 00:56:05;;;;;;;7.72;5.25;;;17.30;86.20;;;;;;5061436;28;20144;-77
2022/06/27 00:58:30;;;;;;;6.05;4.47;;;17.30;87.40;;;;;;5021340;28;20029;-76
2022/06/27 01:00:56;;;;;;;8.57;6.55;;;17.30;87.10;;;;;;5030152;28;20041;-77
2022/06/27 01:03:22;;;;;;;7.03;6.43;;;17.30;90.00;;;;;;5045846;28;20064;-76
2022/06/27 01:05:53;;;;;;;8.10;7.15;;;17.20;91.40;;;;;;5011494;28;20026;-76
2022/06/27 01:08:23;;;;;;;7.05;6.35;;;17.20;91.40;;;;;;5045568;28;20034;-76
2022/06/27 01:10:49;;;;;;;9.13;7.55;;;17.30;93.80;;;;;;5045318;28;20444;-76
2022/06/27 01:13:15;;;;;;;8.85;7.60;;;17.30;93.10;;;;;;5037936;28;20400;-76
2022/06/27 01:15:41;;;;;;;8.05;7.25;;;17.20;93.80;;;;;;5026328;28;20021;-77
2022/06/27 01:18:08;;;;;;;8.57;7.13;;;17.30;94.70;;;;;;5034077;28;20037;-76
2022/06/27 01:20:34;;;;;;;7.93;6.97;;;17.20;92.10;;;;;;5025645;28;20021;-76
2022/06/27 01:23:00;;;;;;;9.07;7.10;;;17.20;92.10;;;;;;5034708;28;20044;-76
2022/06/27 01:25:25;;;;;;;5.90;5.28;;;17.10;92.00;;;;;;5033272;28;20524;-77
2022/06/27 01:27:51;;;;;;;8.25;5.13;;;17.10;94.20;;;;;;5002740;28;20037;-77
2022/06/27 01:30:17;;;;;;;5.43;4.93;;;17.10;97.60;;;;;;5046713;28;20116;-76
2022/06/27 01:32:42;;;;;;;8.05;5.97;;;17.10;94.20;;;;;;5014271;28;20041;-76
2022/06/27 01:35:08;;;;;;;8.90;5.45;;;17.10;93.10;;;;;;5045068;28;20086;-77
2022/06/27 01:37:34;;;;;;;10.05;7.03;;;17.10;96.10;;;;;;5032745;28;20095;-76
2022/06/27 01:40:00;;;;;;;7.43;6.68;;;17.00;93.70;;;;;;5026094;28;20345;-76
2022/06/27 01:42:26;;;;;;;10.65;7.78;;;17.00;93.90;;;;;;5029652;28;20025;-76
2022/06/27 01:44:52;;;;;;;6.22;5.60;;;16.90;94.40;;;;;;5038931;28;20026;-76
2022/06/27 01:47:18;;;;;;;6.88;5.68;;;17.00;98.30;;;;;;5013813;28;20501;-77
2022/06/27 01:49:43;;;;;;;7.63;6.30;;;17.10;98.00;;;;;;5007304;28;20540;-77
2022/06/27 01:52:09;;;;;;;8.40;6.68;;;17.10;99.40;;;;;;5030694;28;20092;-77
2022/06/27 01:54:35;;;;;;;9.20;7.40;;;17.00;96.10;;;;;;5024584;28;20426;-77
2022/06/27 01:57:01;;;;;;;9.10;6.90;;;17.00;96.00;;;;;;5028613;28;20033;-77
2022/06/27 01:59:28;;;;;;;7.80;7.00;;;16.90;96.20;;;;;;5024687;28;20039;-78
2022/06/27 02:01:54;;;;;;;7.03;6.35;;;16.90;97.20;;;;;;5044465;28;20035;-77
2022/06/27 02:04:19;;;;;;;6.82;6.13;;;17.00;97.20;;;;;;5010683;28;20033;-77
2022/06/27 02:06:45;;;;;;;7.78;6.10;;;17.00;98.10;;;;;;5005728;28;20030;-77
2022/06/27 02:09:12;;;;;;;7.07;6.38;;;17.00;98.80;;;;;;5036140;28;20041;-77
2022/06/27 02:11:37;;;;;;;6.40;5.68;;;17.00;98.00;;;;;;5043403;28;20560;-77
2022/06/27 02:14:03;;;;;;;7.30;5.35;;;17.00;98.60;;;;;;5045291;28;20113;-77
2022/06/27 02:16:29;;;;;;;6.55;5.22;;;17.10;97.40;;;;;;5012337;28;20037;-77
2022/06/27 02:18:54;;;;;;;8.00;6.00;;;17.10;97.50;;;;;;5041699;28;20063;-78
2022/06/27 02:21:25;;;;;;;6.15;5.00;;;17.00;98.40;;;;;;5045030;28;20034;-77
2022/06/27 02:23:50;;;;;;;8.15;5.95;;;17.00;98.80;;;;;;5023172;28;20712;-79
2022/06/27 02:26:17;;;;;;;5.57;5.00;;;17.00;99.50;;;;;;5038919;28;20211;-78
2022/06/27 02:28:43;;;;;;;6.65;5.68;;;17.10;98.90;;;;;;5023210;28;20040;-77
2022/06/27 02:31:09;;;;;;;6.13;5.50;;;17.10;98.20;;;;;;5030831;28;20091;-76
2022/06/27 02:33:45;;;;;;;7.20;6.50;;;17.00;98.80;;;;;;5024490;28;20021;-78
2022/06/27 02:36:13;;;;;;;;;;;16.90;99.30;;;;;;5008996;28;20038;-77
2022/06/27 02:38:40;;;;;;;8.57;6.03;;;16.90;99.80;;;;;;5026003;28;19919;-78
2022/06/27 02:41:06;;;;;;;7.53;5.82;;;16.90;99.90;;;;;;5041588;28;20448;-77
2022/06/27 02:43:32;;;;;;;9.15;6.28;;;16.90;99.90;;;;;;5021794;28;20029;-77
2022/06/27 02:45:58;;;;;;;8.32;6.18;;;16.90;99.90;;;;;;5028571;28;20147;-77
2022/06/27 02:48:24;;;;;;;6.50;5.35;;;17.00;99.90;;;;;;5027314;28;20172;-76
2022/06/27 02:50:57;;;;;;;8.75;5.88;;;17.00;99.90;;;;;;5040267;28;20533;-77
2022/06/27 02:53:25;;;;;;;8.38;6.20;;;17.10;99.90;;;;;;5042841;28;20033;-76
2022/06/27 02:55:50;;;;;;;7.20;6.00;;;17.10;99.90;;;;;;5015321;28;20040;-77
2022/06/27 02:58:21;;;;;;;6.85;6.15;;;17.10;99.90;;;;;;5026723;28;20120;-77
2022/06/27 03:00:48;;;;;;;9.90;6.45;;;17.00;99.90;;;;;;5025165;28;20401;-77
2022/06/27 03:03:14;;;;;;;7.07;6.18;;;17.00;99.90;;;;;;5019307;28;20037;-77
2022/06/27 03:05:59;;;;;;;10.05;7.35;;;17.10;99.90;;;;;;5012414;28;20497;-76
2022/06/27 03:08:25;;;;;;;8.02;5.72;;;17.10;99.90;;;;;;5004113;28;20400;-77
2022/06/27 03:10:50;;;;;;;9.25;7.90;;;17.20;99.90;;;;;;4986033;28;20445;-76
2022/06/27 03:13:16;;;;;;;8.55;7.20;;;17.10;99.90;;;;;;4996875;28;20050;-77
2022/06/27 03:15:41;;;;;;;9.30;8.32;;;17.10;99.90;;;;;;5004799;28;20034;-77
2022/06/27 03:18:07;;;;;;;10.07;7.75;;;17.10;99.90;;;;;;4989825;28;20046;-76
2022/06/27 03:20:32;;;;;;;12.93;8.82;;;17.20;99.90;;;;;;4992141;28;20038;-77
2022/06/27 03:22:58;;;;;;;9.98;8.98;;;17.20;99.90;;;;;;5013617;28;20532;-77
2022/06/27 03:25:24;;;;;;;12.13;8.20;;;17.10;99.90;;;;;;5032466;28;20452;-77
2022/06/27 03:27:49;;;;;;;13.32;8.07;;;17.20;99.90;;;;;;4991481;28;20032;-77
2022/06/27 03:30:15;;;;;;;9.07;8.13;;;17.20;99.90;;;;;;5007119;28;20120;-77
2022/06/27 03:32:40;;;;;;;17.13;9.88;;;17.20;99.90;;;;;;4990035;28;20118;-77
2022/06/27 03:35:07;;;;;;;12.48;9.30;;;17.20;99.90;;;;;;5010833;28;20116;-76
2022/06/27 03:37:34;;;;;;;13.27;9.02;;;17.20;99.90;;;;;;5005115;28;20490;-76
2022/06/27 03:39:59;;;;;;;11.93;8.68;;;17.20;99.90;;;;;;4996749;28;20026;-76
2022/06/27 03:42:25;;;;;;;12.63;9.48;;;17.20;99.90;;;;;;4991547;28;20086;-77
2022/06/27 03:44:50;;;;;;;10.95;8.52;;;17.10;99.90;;;;;;4993796;28;20106;-77
2022/06/27 03:47:16;;;;;;;8.95;7.88;;;17.20;99.90;;;;;;5018420;28;20033;-77
2022/06/27 03:52:25;;;;;;;13.02;9.00;;;17.30;99.90;;;;;;4992907;28;20042;-77
2022/06/27 03:54:51;;;;;;;9.70;8.40;;;17.30;99.90;;;;;;4991607;28;20481;-76
2022/06/27 03:57:16;;;;;;;5.95;5.38;;;17.30;99.90;;;;;;4988357;28;20473;-77
2022/06/27 03:59:42;;;;;;;7.50;6.57;;;17.40;99.90;;;;;;5023998;28;20097;-77
2022/06/27 04:02:09;;;;;;;9.35;8.45;;;17.30;99.90;;;;;;5005357;28;20433;-77
2022/06/27 04:04:34;;;;;;;9.32;8.00;;;17.30;99.90;;;;;;4992242;28;20026;-77
2022/06/27 04:07:02;;;;;;;10.60;8.93;;;17.30;99.90;;;;;;5009660;28;20033;-77
2022/06/27 04:09:31;;;;;;;10.93;8.43;;;17.30;99.90;;;;;;5003958;28;20550;-77
2022/06/27 04:11:56;;;;;;;10.50;9.15;;;17.30;99.90;;;;;;5016272;28;20030;-77
2022/06/27 04:14:22;;;;;;;10.90;9.18;;;17.30;99.90;;;;;;5005194;28;20083;-77
2022/06/27 04:16:47;;;;;;;12.80;9.60;;;17.30;99.90;;;;;;5006024;28;20113;-77
2022/06/27 04:19:13;;;;;;;12.90;9.45;;;17.30;99.90;;;;;;4990126;28;20038;-76
2022/06/27 04:21:39;;;;;;;11.55;9.35;;;17.40;99.90;;;;;;4992503;28;20089;-77
2022/06/27 04:24:04;;;;;;;10.55;9.13;;;17.40;99.90;;;;;;4998111;28;20057;-76
2022/06/27 04:26:30;;;;;;;11.95;8.48;;;17.40;99.90;;;;;;5008896;28;20026;-77
2022/06/27 04:28:56;;;;;;;10.57;9.23;;;17.30;99.90;;;;;;5000293;28;20394;-77
2022/06/27 04:31:21;;;;;;;9.95;8.32;;;17.40;99.90;;;;;;5006395;28;20393;-76
2022/06/27 04:33:47;;;;;;;9.13;8.05;;;17.40;99.90;;;;;;4999806;28;20061;-76
2022/06/27 04:36:12;;;;;;;8.82;7.93;;;17.40;99.90;;;;;;4992408;28;20030;-76
2022/06/27 04:38:38;;;;;;;10.18;8.82;;;17.50;99.70;;;;;;5025564;28;20038;-76
2022/06/27 04:41:05;;;;;;;10.13;8.68;;;17.50;99.90;;;;;;5024938;28;20091;-77
2022/06/27 04:43:33;;;;;;;10.88;9.27;;;17.40;99.10;;;;;;4987169;28;20153;-77
2022/06/27 04:45:59;;;;;;;12.05;10.52;;;17.40;99.30;;;;;;5006048;28;20073;-78
2022/06/27 04:48:26;;;;;;;13.70;11.20;;;17.40;99.90;;;;;;4997411;28;20424;-77
2022/06/27 04:50:52;;;;;;;14.40;11.13;;;17.30;99.90;;;;;;5023887;28;20044;-77
2022/06/27 04:53:19;;;;;;;12.82;10.90;;;17.40;99.90;;;;;;5009935;28;20030;-77
2022/06/27 04:55:45;;;;;;;13.80;12.40;;;17.30;99.90;;;;;;5000137;28;20031;-78
2022/06/27 04:58:11;;;;;;;15.88;12.23;;;17.30;99.90;;;;;;5001587;28;20049;-79
2022/06/27 05:00:37;;;;;;;14.05;12.60;;;17.20;99.90;;;;;;5018083;28;20121;-78
2022/06/27 05:03:03;;;;;;;13.27;11.98;;;17.20;99.90;;;;;;5006048;28;20577;-78
2022/06/27 05:05:28;;;;;;;16.70;13.55;;;17.20;99.90;;;;;;4981351;28;20029;-78
2022/06/27 05:07:56;;;;;;;15.60;12.77;;;17.20;99.90;;;;;;5007501;28;20025;-78
2022/06/27 05:10:23;;;;;;;15.38;13.23;;;17.20;99.90;;;;;;5019573;28;20113;-78
2022/06/27 05:12:49;;;;;;;14.80;13.10;;;17.20;99.90;;;;;;5005549;28;20090;-78
2022/06/27 05:15:14;;;;;;;20.30;13.52;;;17.20;99.90;;;;;;4993362;28;20082;-78
2022/06/27 05:17:43;;;;;;;17.30;12.77;;;17.10;99.90;;;;;;4999816;28;20485;-78
2022/06/27 05:20:09;;;;;;;18.67;13.70;;;17.10;99.90;;;;;;5028745;28;20485;-78
2022/06/27 05:22:34;;;;;;;17.30;13.70;;;17.10;99.90;;;;;;4995564;28;20029;-78
2022/06/27 05:25:02;;;;;;;14.73;11.77;;;17.10;99.90;;;;;;5061387;28;20043;-78
2022/06/27 05:27:28;;;;;;;18.00;13.82;;;17.20;99.90;;;;;;5029628;28;20048;-78
2022/06/27 05:29:53;;;;;;;16.35;14.48;;;17.20;99.90;;;;;;5041542;28;20474;-78
2022/06/27 05:32:19;;;;;;;20.98;14.55;;;17.20;99.90;;;;;;5024126;28;20118;-76
2022/06/27 05:34:44;;;;;;;20.48;15.32;;;17.30;99.90;;;;;;5033363;28;20048;-76
2022/06/27 05:37:10;;;;;;;21.25;15.85;;;17.30;99.90;;;;;;5019914;28;20481;-76
2022/06/27 05:39:35;;;;;;;12.60;11.32;;;17.30;99.90;;;;;;5019117;28;20501;-78
2022/06/27 05:42:03;;;;;;;20.45;15.70;;;17.40;99.90;;;;;;5019506;28;20038;-77
2022/06/27 05:44:28;;;;;;;17.58;14.20;;;17.50;99.90;;;;;;5052101;28;20091;-79
2022/06/27 05:46:56;;;;;;;17.27;14.43;;;17.50;99.90;;;;;;5017291;28;20037;-77
2022/06/27 05:49:22;;;;;;;17.52;14.15;;;17.60;99.90;;;;;;5002675;28;20072;-78
2022/06/27 05:51:49;;;;;;;14.57;12.90;;;17.70;99.90;;;;;;5004611;28;20486;-76
2022/06/27 05:54:15;;;;;;;15.85;13.25;;;17.70;99.90;;;;;;4992939;28;20061;-78
2022/06/27 05:56:41;;;;;;;13.27;11.88;;;17.70;99.90;;;;;;4977953;28;20129;-77
2022/06/27 05:59:07;;;;;;;16.80;12.77;;;17.80;99.90;;;;;;5023404;28;20472;-76
2022/06/27 06:01:33;;;;;;;15.45;12.77;;;17.80;99.90;;;;;;5008714;28;20056;-76
2022/06/27 06:03:59;;;;;;;16.95;12.63;;;17.80;99.90;;;;;;5023464;28;20044;-76
2022/06/27 06:06:25;;;;;;;14.70;11.77;;;17.80;99.90;;;;;;4986355;28;20113;-76
2022/06/27 06:08:52;;;;;;;13.43;10.93;;;17.90;99.90;;;;;;4997957;28;20026;-76
2022/06/27 06:11:17;;;;;;;6.22;5.63;;;17.90;99.90;;;;;;4983247;28;20220;-77
2022/06/27 06:13:43;;;;;;;12.27;10.43;;;18.00;99.90;;;;;;4995840;28;20108;-76
2022/06/27 06:16:10;;;;;;;5.57;4.45;;;18.00;99.90;;;;;;4988070;28;20124;-76
2022/06/27 06:18:36;;;;;;;10.73;9.65;;;18.00;99.90;;;;;;4991598;28;20091;-76
2022/06/27 06:21:01;;;;;;;12.80;9.75;;;18.00;99.90;;;;;;4981702;28;20038;-76
2022/06/27 06:23:27;;;;;;;12.40;10.52;;;18.00;99.90;;;;;;5020530;28;20069;-77
2022/06/27 06:25:53;;;;;;;12.43;10.52;;;18.00;99.90;;;;;;4990085;28;20038;-76
2022/06/27 06:28:18;;;;;;;11.55;10.43;;;17.90;99.90;;;;;;5004511;28;20033;-76
2022/06/27 06:30:44;;;;;;;13.82;10.95;;;18.00;99.90;;;;;;4996732;28;20031;-76
2022/06/27 06:33:10;;;;;;;12.90;11.68;;;18.00;99.90;;;;;;4998918;28;20038;-76
2022/06/27 06:35:35;;;;;;;14.40;11.88;;;18.00;99.90;;;;;;4985054;28;20026;-75
2022/06/27 06:38:01;;;;;;;10.10;8.07;;;18.20;99.90;;;;;;4997243;28;20472;-75
2022/06/27 06:40:27;;;;;;;13.93;12.00;;;18.20;99.90;;;;;;5001617;28;20041;-76
2022/06/27 06:42:54;;;;;;;13.85;11.50;;;18.30;99.90;;;;;;5026865;28;20072;-76
2022/06/27 06:45:20;;;;;;;6.72;6.13;;;18.30;99.90;;;;;;5004741;28;20062;-76
2022/06/27 06:47:46;;;;;;;6.65;5.75;;;18.40;99.90;;;;;;5017064;28;20076;-76
2022/06/27 06:50:16;;;;;;;8.40;7.22;;;18.40;99.90;;;;;;4993907;28;20036;-76
2022/06/27 06:52:50;;;;;;;10.48;9.38;;;18.50;99.90;;;;;;4989339;28;20037;-76
2022/06/27 06:55:17;;;;;;;9.75;6.82;;;18.60;99.90;;;;;;5002861;28;20070;-76
2022/06/27 06:57:43;;;;;;;13.55;10.18;;;18.70;99.90;;;;;;5018764;28;20038;-76
2022/06/27 07:00:09;;;;;;;13.50;10.30;;;18.80;99.90;;;;;;5003643;28;20041;-76
2022/06/27 07:02:35;;;;;;;9.05;7.95;;;18.90;99.90;;;;;;5019300;28;20105;-76
2022/06/27 07:05:08;;;;;;;10.25;9.18;;;18.90;99.90;;;;;;5005515;28;20113;-75
2022/06/27 07:07:34;;;;;;;11.60;10.30;;;19.10;99.90;;;;;;4997364;28;20505;-76
2022/06/27 07:10:00;;;;;;;11.77;10.60;;;19.20;99.90;;;;;;5004257;28;20254;-76
2022/06/27 07:12:26;;;;;;;11.40;10.30;;;19.30;99.90;;;;;;4990880;28;20046;-76
2022/06/27 07:14:54;;;;;;;9.68;8.68;;;19.40;99.90;;;;;;5005913;28;20022;-75
2022/06/27 07:17:24;;;;;;;10.52;9.23;;;19.50;99.90;;;;;;4983148;28;20040;-76
2022/06/27 07:19:52;;;;;;;10.50;9.43;;;19.60;99.90;;;;;;4986962;28;20042;-76
2022/06/27 07:22:19;;;;;;;13.55;10.70;;;19.70;99.90;;;;;;4986358;28;20454;-76
2022/06/27 07:24:49;;;;;;;12.13;9.20;;;19.70;99.90;;;;;;4992856;28;20456;-75
2022/06/27 07:27:16;;;;;;;12.95;9.43;;;19.70;99.90;;;;;;5037638;28;20125;-75
2022/06/27 07:29:42;;;;;;;7.82;6.70;;;19.70;99.90;;;;;;4997362;28;20435;-76
2022/06/27 07:32:08;;;;;;;10.98;9.48;;;19.70;99.90;;;;;;5011006;28;20029;-78
2022/06/27 07:34:34;;;;;;;10.13;8.98;;;19.80;99.90;;;;;;4970218;28;20034;-77
2022/06/27 07:37:00;;;;;;;12.05;8.82;;;19.70;99.90;;;;;;5000781;28;20458;-77
2022/06/27 07:39:26;;;;;;;11.23;9.63;;;19.70;99.90;;;;;;4978654;28;20117;-75
2022/06/27 07:41:53;;;;;;;10.02;8.07;;;19.70;99.90;;;;;;4995573;28;20034;-78
2022/06/27 07:44:18;;;;;;;9.30;8.40;;;19.70;99.90;;;;;;4999556;28;20034;-78
2022/06/27 07:46:44;;;;;;;9.80;7.57;;;19.70;99.90;;;;;;4987001;28;20045;-77
2022/06/27 07:49:09;;;;;;;9.52;8.40;;;19.60;99.90;;;;;;5003779;28;20385;-76
2022/06/27 07:51:35;;;;;;;9.40;8.50;;;19.60;99.90;;;;;;4996250;28;20489;-75
2022/06/27 07:54:01;;;;;;;9.30;8.20;;;19.60;99.90;;;;;;4978428;28;20401;-75
2022/06/27 07:56:27;;;;;;;10.05;9.15;;;19.60;99.90;;;;;;4984221;28;20145;-76
2022/06/27 07:58:53;;;;;;;9.50;8.52;;;19.60;99.90;;;;;;4990205;28;20499;-75
2022/06/27 08:01:19;;;;;;;11.52;10.32;;;19.60;99.90;;;;;;5013813;28;20041;-75
2022/06/27 08:03:47;;;;;;;13.68;9.80;;;19.60;99.90;;;;;;4999179;28;20102;-75
2022/06/27 08:06:18;;;;;;;11.75;9.98;;;19.60;99.90;;;;;;4979929;28;20486;-76
2022/06/27 08:08:52;;;;;;;12.38;11.13;;;19.70;99.90;;;;;;5010963;28;20034;-78
2022/06/27 08:11:20;;;;;;;12.52;10.55;;;19.80;99.90;;;;;;5031213;28;20062;-76
2022/06/27 08:13:47;;;;;;;10.68;9.57;;;20.00;99.90;;;;;;5000576;28;20027;-76
2022/06/27 08:16:14;;;;;;;13.10;10.60;;;20.20;99.90;;;;;;4999275;28;20038;-76
2022/06/27 08:18:40;;;;;;;11.50;9.70;;;20.40;99.90;;;;;;4981746;28;20039;-75
2022/06/27 08:21:08;;;;;;;13.65;9.27;;;20.60;99.90;;;;;;5022271;28;20120;-77
2022/06/27 08:23:34;;;;;;;12.32;9.02;;;20.70;99.90;;;;;;4998068;28;20434;-75
2022/06/27 08:26:00;;;;;;;12.73;9.95;;;20.80;99.90;;;;;;4987559;28;20038;-77
2022/06/27 08:28:26;;;;;;;10.15;9.13;;;21.00;99.90;;;;;;4987816;28;20085;-77
2022/06/27 08:30:52;;;;;;;7.75;7.05;;;21.10;99.90;;;;;;5005121;28;20033;-75
2022/06/27 08:33:18;;;;;;;11.85;9.35;;;21.10;99.90;;;;;;4990373;28;20022;-77
2022/06/27 08:35:47;;;;;;;13.20;11.27;;;21.20;99.90;;;;;;4983544;28;20108;-76
2022/06/27 08:38:15;;;;;;;10.48;8.73;;;21.30;99.90;;;;;;4992683;28;20033;-77
2022/06/27 08:40:42;;;;;;;9.27;8.32;;;21.30;99.90;;;;;;5014061;28;20046;-76
2022/06/27 08:43:09;;;;;;;13.27;10.73;;;21.30;99.90;;;;;;4994426;28;20092;-77
2022/06/27 08:45:35;;;;;;;11.48;9.52;;;21.30;99.90;;;;;;4994068;28;20070;-76
2022/06/27 08:48:07;;;;;;;11.43;8.15;;;21.30;99.90;;;;;;5006231;28;20057;-76
2022/06/27 08:50:36;;;;;;;8.15;7.35;;;21.30;99.90;;;;;;5025575;28;20021;-76
2022/06/27 08:53:02;;;;;;;9.65;7.93;;;21.30;99.90;;;;;;4994156;28;20561;-76
2022/06/27 08:55:30;;;;;;;11.60;10.23;;;21.40;99.90;;;;;;4992478;28;20022;-75
2022/06/27 08:58:07;;;;;;;6.68;5.78;;;21.40;99.90;;;;;;5000760;28;20034;-77
2022/06/27 09:00:41;;;;;;;6.40;5.78;;;21.30;99.90;;;;;;5018044;28;20085;-76
2022/06/27 09:03:07;;;;;;;12.20;9.07;;;21.30;99.90;;;;;;5012812;28;20064;-75
2022/06/27 09:05:33;;;;;;;9.90;8.20;;;21.40;99.90;;;;;;4994060;28;20052;-75
2022/06/27 09:08:01;;;;;;;7.45;6.25;;;21.40;99.90;;;;;;4975700;28;20018;-75
2022/06/27 09:10:29;;;;;;;6.55;5.70;;;21.40;99.90;;;;;;4985869;28;20034;-76
2022/06/27 09:12:56;;;;;;;6.57;5.53;;;21.40;99.90;;;;;;5003483;28;20030;-75
2022/06/27 09:15:24;;;;;;;5.85;5.35;;;21.30;99.90;;;;;;5030020;28;20050;-77
2022/06/27 09:18:01;;;;;;;6.43;5.53;;;21.30;99.90;;;;;;5003963;28;20049;-76
2022/06/27 09:20:49;;;;;;;6.50;5.80;;;21.20;99.90;;;;;;5016513;28;20036;-75
2022/06/27 09:23:50;;;;;;;5.95;5.28;;;21.20;99.90;;;;;;5005363;28;20128;-77
2022/06/27 09:26:34;;;;;;;6.50;5.88;;;21.20;99.90;;;;;;5037685;28;20409;-75
2022/06/27 09:29:14;;;;;;;7.80;6.75;;;21.20;99.90;;;;;;5002966;28;20026;-76
2022/06/27 09:31:45;;;;;;;8.27;4.82;;;21.20;99.90;;;;;;5003679;28;20033;-77
2022/06/27 09:34:16;;;;;;;7.88;6.97;;;21.20;99.90;;;;;;4994923;28;20052;-75
2022/06/27 09:36:49;;;;;;;6.03;5.47;;;21.30;99.90;;;;;;5029637;28;20084;-75
2022/06/27 09:39:29;;;;;;;6.78;6.07;;;21.30;99.90;;;;;;5018627;28;20034;-75
2022/06/27 09:42:01;;;;;;;9.10;8.23;;;21.40;99.90;;;;;;5024427;28;20531;-75
2022/06/27 09:44:34;;;;;;;11.13;7.30;;;21.50;99.90;;;;;;4999784;28;20037;-76
2022/06/27 09:47:04;;;;;;;7.35;6.53;;;21.50;99.90;;;;;;5033947;28;20060;-76
2022/06/27 09:49:35;;;;;;;7.65;6.43;;;21.60;99.90;;;;;;5007323;28;20041;-76
2022/06/27 09:52:21;;;;;;;7.60;6.82;;;21.70;99.90;;;;;;5006935;28;20519;-76
2022/06/27 09:54:48;;;;;;;7.72;5.75;;;21.70;99.90;;;;;;4985233;28;20359;-76
2022/06/27 09:57:14;;;;;;;11.60;9.80;;;21.70;99.90;;;;;;4991481;28;20497;-75
2022/06/27 09:59:40;;;;;;;11.77;10.35;;;21.90;99.90;;;;;;5006005;28;20037;-75
2022/06/27 10:02:05;;;;;;;12.02;9.07;;;21.90;99.90;;;;;;5012256;28;20045;-75
2022/06/27 10:04:31;;;;;;;9.38;8.48;;;22.00;99.90;;;;;;4994638;28;20715;-75
2022/06/27 10:07:02;;;;;;;9.07;8.27;;;22.10;99.90;;;;;;5002776;28;20034;-75
2022/06/27 10:09:29;;;;;;;8.23;6.82;;;22.10;99.90;;;;;;4992818;28;20887;-76
2022/06/27 10:12:25;;;;;;;8.35;7.57;;;22.10;99.50;;;;;;5007505;28;20438;-75
2022/06/27 10:15:09;;;;;;;8.98;8.05;;;22.00;99.80;;;;;;5006099;28;20038;-75
2022/06/27 10:17:55;;;;;;;11.00;8.63;;;22.30;99.40;;;;;;5006451;28;20426;-75
2022/06/27 10:20:28;;;;;;;9.07;8.18;;;22.30;99.10;;;;;;5011039;28;20060;-75
2022/06/27 10:23:08;;;;;;;12.60;11.27;;;22.50;99.90;;;;;;5005356;28;20029;-76
2022/06/27 10:25:38;;;;;;;8.73;7.97;;;22.70;99.90;;;;;;5005392;28;20026;-76
2022/06/27 10:28:13;;;;;;;10.13;9.07;;;23.00;99.90;;;;;;4999627;28;20100;-76
2022/06/27 10:30:45;;;;;;;10.32;9.35;;;23.10;99.90;;;;;;5002628;28;20087;-75
2022/06/27 10:33:23;;;;;;;13.48;12.18;;;23.10;98.60;;;;;;5002305;28;20030;-75
2022/06/27 10:36:15;;;;;;;12.45;10.32;;;23.40;99.90;;;;;;5002599;28;20077;-75
2022/06/27 10:38:45;;;;;;;10.40;8.70;;;23.60;98.50;;;;;;4998613;28;20033;-75
2022/06/27 10:41:32;;;;;;;16.67;12.95;;;23.90;98.70;;;;;;5030662;28;20061;-76
2022/06/27 10:43:59;;;;;;;12.90;11.50;;;24.50;99.90;;;;;;5007635;28;20062;-76
2022/06/27 10:46:24;;;;;;;10.30;9.30;;;24.80;99.90;;;;;;5000141;28;20528;-75
2022/06/27 10:48:56;;;;;;;11.60;10.43;;;25.00;99.90;;;;;;5018567;28;20054;-76
2022/06/27 10:51:22;;;;;;;17.70;13.32;;;25.20;99.90;;;;;;5005195;28;20505;-74
2022/06/27 10:53:52;;;;;;;11.32;10.23;;;25.60;99.90;;;;;;5007676;28;20026;-75
2022/06/27 10:56:29;;;;;;;10.38;9.38;;;24.90;95.40;;;;;;5003418;28;20075;-76
2022/06/27 10:58:59;;;;;;;9.27;8.43;;;24.80;95.20;;;;;;5001345;28;20069;-76
2022/06/27 11:01:26;;;;;;;10.75;9.73;;;24.90;95.40;;;;;;4990386;28;20065;-75
2022/06/27 11:03:51;;;;;;;14.73;13.02;;;25.20;98.10;;;;;;5011301;28;20121;-76
2022/06/27 11:06:17;;;;;;;12.57;11.27;;;25.40;97.80;;;;;;5014556;28;20504;-77
2022/06/27 11:08:44;;;;;;;13.43;12.02;;;25.40;97.30;;;;;;4995503;28;20382;-76
2022/06/27 11:11:20;;;;;;;13.80;12.18;;;25.40;97.60;;;;;;5005890;28;20493;-76
2022/06/27 11:13:52;;;;;;;16.02;13.40;;;25.40;98.10;;;;;;4994360;28;20121;-76
2022/06/27 11:16:22;;;;;;;12.70;11.18;;;25.30;98.10;;;;;;4990214;28;20026;-76
2022/06/27 11:18:58;;;;;;;14.55;11.68;;;25.20;97.20;;;;;;5005058;28;20055;-76
2022/06/27 11:21:25;;;;;;;11.63;10.55;;;25.10;96.10;;;;;;5005338;28;20088;-77
2022/06/27 11:23:59;;;;;;;16.42;14.57;;;24.90;95.20;;;;;;5003472;28;20034;-76
2022/06/27 11:26:28;;;;;;;14.18;12.68;;;24.70;95.10;;;;;;5006032;28;20559;-76
2022/06/27 11:34:24;;;;;;;15.50;12.50;;;25.30;97.50;;;;;;5001783;28;20036;-75
2022/06/27 11:36:49;;;;;;;12.00;10.65;;;25.50;97.20;;;;;;4988666;28;20113;-74
2022/06/27 11:39:16;;;;;;;16.67;12.77;;;25.70;96.00;;;;;;5007198;28;20143;-76
2022/06/27 11:41:41;;;;;;;13.18;11.68;;;25.80;96.40;;;;;;4996858;28;20040;-75
2022/06/27 11:44:12;;;;;;;11.50;10.30;;;25.60;95.20;;;;;;5004629;28;20128;-75
2022/06/27 11:46:45;;;;;;;14.52;11.70;;;25.30;94.40;;;;;;5004792;28;20042;-75
2022/06/27 11:49:16;;;;;;;14.70;11.27;;;25.90;96.30;;;;;;4989411;28;20042;-76
2022/06/27 11:51:47;;;;;;;12.45;10.88;;;26.00;95.00;;;;;;4993376;28;20026;-76
2022/06/27 11:54:19;;;;;;;11.02;9.88;;;25.90;93.50;;;;;;4990389;28;20113;-76
2022/06/27 11:56:46;;;;;;;10.80;9.80;;;25.70;93.20;;;;;;5027384;28;20204;-76
2022/06/27 11:59:13;;;;;;;11.50;10.30;;;25.50;92.10;;;;;;5023770;28;20041;-77
2022/06/27 12:02:01;;;;;;;11.68;10.45;;;25.70;94.30;;;;;;5023944;28;20404;-76
2022/06/27 12:04:31;;;;;;;10.27;9.27;;;26.00;94.20;;;;;;5004388;28;20100;-76
2022/06/27 12:06:58;;;;;;;11.85;10.10;;;26.10;93.80;;;;;;4997972;28;20557;-77
2022/06/27 12:09:25;;;;;;;14.13;12.32;;;26.30;93.50;;;;;;5009326;28;20489;-75
2022/06/27 12:12:02;;;;;;;14.00;12.45;;;26.50;94.00;;;;;;4995001;28;20053;-77
2022/06/27 12:14:28;;;;;;;15.45;11.32;;;26.60;93.20;;;;;;5011684;28;20040;-77
2022/06/27 12:16:57;;;;;;;18.73;14.85;;;26.70;93.10;;;;;;5017988;28;20037;-77
2022/06/27 12:19:24;;;;;;;12.52;11.20;;;27.10;92.90;;;;;;5013120;28;20034;-77
2022/06/27 12:21:49;;;;;;;14.32;12.25;;;27.10;92.90;;;;;;5015379;28;20497;-76
2022/06/27 12:24:15;;;;;;;11.60;10.40;;;27.40;92.60;;;;;;4998140;28;20026;-77
2022/06/27 12:26:41;;;;;;;10.48;9.25;;;27.40;91.20;;;;;;5008964;28;20444;-76
2022/06/27 12:29:06;;;;;;;10.88;9.60;;;27.90;91.30;;;;;;5016922;28;20034;-75
2022/06/27 12:31:33;;;;;;;13.18;11.70;;;27.70;88.60;;;;;;4994288;28;20084;-77
2022/06/27 12:33:59;;;;;;;18.48;16.45;;;28.20;92.00;;;;;;5020517;28;20091;-77
2022/06/27 12:36:24;;;;;;;12.13;11.02;;;28.90;90.90;;;;;;5010095;28;20065;-78
2022/06/27 12:38:50;;;;;;;14.95;11.88;;;28.90;89.40;;;;;;5024414;28;20031;-77
2022/06/27 12:41:15;;;;;;;14.32;11.43;;;29.10;88.00;;;;;;5030575;28;20107;-76
2022/06/27 12:43:42;;;;;;;14.18;11.38;;;28.90;85.70;;;;;;5003935;28;20036;-77
2022/06/27 12:46:07;;;;;;;13.30;11.18;;;28.50;84.60;;;;;;5009494;28;21089;-76
2022/06/27 12:48:33;;;;;;;12.05;10.75;;;28.50;83.30;;;;;;5004113;28;20033;-77